NCAR-RAP Real-Time Weather Data

Output produced by METARs form (21 April 2018  09:48 UTC)
found at http://weather.rap.ucar.edu/surface/
 
Conditions at: KBKV observed 21 April 2018  09:21 UTC
Temperature: 17.8°C (64°F)
Dewpoint: 15.6°C (60°F) [RH = 87%]
Pressure (altimeter): 30.13 inches Hg (1020.4 mb)
Winds: from the NE (40 degrees) at 8 MPH (7 knots; 3.6 m/s)
Visibility: 9 miles (14 km)
Ceiling: 1300 feet AGL
Clouds: scattered clouds at 800 feet AGL
broken clouds at 1300 feet AGL
Present Weather: automated observation with no human augmentation;
there may or may not be significant weather present at this time
KBKV 210921Z AUTO 04007KT 9SM SCT008 BKN013 18/16 A3013 RMK AO2 T01780156

Conditions at: KBKV observed 21 April 2018  08:53 UTC
Temperature: 17.8°C (64°F)
Dewpoint: 15.6°C (60°F) [RH = 87%]
Pressure (altimeter): 30.13 inches Hg (1020.4 mb)
[Sea-level pressure: 1020.2 mb]
Winds: from the NE (50 degrees) at 7 MPH (6 knots; 3.1 m/s)
Visibility: 8 miles (13 km)
Ceiling: 900 feet AGL
Clouds: overcast cloud deck at 900 feet AGL
Present Weather: automated observation with no human augmentation;
there may or may not be significant weather present at this time
KBKV 210853Z AUTO 05006KT 8SM OVC009 18/16 A3013 RMK AO2 SLP202 T01780156 56014

Conditions at: KBKV observed 21 April 2018  08:38 UTC
Temperature: 17.8°C (64°F)
Dewpoint: 15.6°C (60°F) [RH = 87%]
Pressure (altimeter): 30.13 inches Hg (1020.4 mb)
Winds: from the NE (50 degrees) at 7 MPH (6 knots; 3.1 m/s)
Visibility: 8 miles (13 km)
Ceiling: 900 feet AGL
Clouds: overcast cloud deck at 900 feet AGL
Present Weather: automated observation with no human augmentation;
there may or may not be significant weather present at this time
KBKV 210838Z AUTO 05006KT 8SM OVC009 18/16 A3013 RMK AO2 T01780156

Conditions at: KBKV observed 21 April 2018  07:53 UTC
Temperature: 18.3°C (65°F)
Dewpoint: 15.0°C (59°F) [RH = 81%]
Pressure (altimeter): 30.14 inches Hg (1020.7 mb)
[Sea-level pressure: 1020.3 mb]
Winds: from the NE (50 degrees) at 8 MPH (7 knots; 3.6 m/s)
Visibility: 9 miles (14 km)
Ceiling: 1000 feet AGL
Clouds: overcast cloud deck at 1000 feet AGL
Present Weather: automated observation with no human augmentation;
there may or may not be significant weather present at this time
KBKV 210753Z AUTO 05007KT 9SM OVC010 18/15 A3014 RMK AO2 SLP203 T01830150

Conditions at: KBKV observed 21 April 2018  06:53 UTC
Temperature: 17.8°C (64°F)
Dewpoint: 15.0°C (59°F) [RH = 84%]
Pressure (altimeter): 30.14 inches Hg (1020.7 mb)
[Sea-level pressure: 1020.7 mb]
Winds: from the NE (50 degrees) at 7 MPH (6 knots; 3.1 m/s)
Visibility: 9 miles (14 km)
Ceiling: 1200 feet AGL
Clouds: overcast cloud deck at 1200 feet AGL
Present Weather: automated observation with no human augmentation;
there may or may not be significant weather present at this time
KBKV 210653Z AUTO 05006KT 9SM OVC012 18/15 A3014 RMK AO2 SLP207 T01780150

Conditions at: KBKV observed 21 April 2018  05:53 UTC
Temperature: 18.3°C (65°F)
Dewpoint: 15.0°C (59°F) [RH = 81%]
Pressure (altimeter): 30.17 inches Hg (1021.8 mb)
[Sea-level pressure: 1021.6 mb]
Winds: from the NE (40 degrees) at 12 MPH (10 knots; 5.2 m/s)
Visibility: 9 miles (14 km)
Ceiling: 1300 feet AGL
Clouds: overcast cloud deck at 1300 feet AGL
Present Weather: automated observation with no human augmentation;
there may or may not be significant weather present at this time
KBKV 210553Z AUTO 04010KT 9SM OVC013 18/15 A3017 RMK AO2 SLP216 T01830150 10222 20183 56002

Conditions at: KBKV observed 21 April 2018  04:53 UTC
Temperature: 18.3°C (65°F)
Dewpoint: 15.0°C (59°F) [RH = 81%]
Pressure (altimeter): 30.17 inches Hg (1021.8 mb)
[Sea-level pressure: 1021.7 mb]
Winds: from the NE (40 degrees) at 9 MPH (8 knots; 4.2 m/s)
Visibility: 9 miles (14 km)
Ceiling: 1300 feet AGL
Clouds: overcast cloud deck at 1300 feet AGL
Present Weather: automated observation with no human augmentation;
there may or may not be significant weather present at this time
KBKV 210453Z AUTO 04008KT 9SM OVC013 18/15 A3017 RMK AO2 SLP217 T01830150 402890122

Conditions at: KBKV observed 21 April 2018  03:53 UTC
Temperature: 18.3°C (65°F)
Dewpoint: 15.0°C (59°F) [RH = 81%]
Pressure (altimeter): 30.17 inches Hg (1021.8 mb)
[Sea-level pressure: 1021.6 mb]
Winds: from the NE (40 degrees) at 10 MPH (9 knots; 4.7 m/s)
Visibility: 10 or more miles (16+ km)
Ceiling: 1400 feet AGL
Clouds: overcast cloud deck at 1400 feet AGL
Present Weather: automated observation with no human augmentation;
there may or may not be significant weather present at this time
KBKV 210353Z AUTO 04009KT 10SM OVC014 18/15 A3017 RMK AO2 SLP216 T01830150

Conditions at: KBKV observed 21 April 2018  02:53 UTC
Temperature: 18.9°C (66°F)
Dewpoint: 15.0°C (59°F) [RH = 78%]
Pressure (altimeter): 30.18 inches Hg (1022.1 mb)
[Sea-level pressure: 1021.7 mb]
Winds: from the NNE (30 degrees) at 13 MPH (11 knots; 5.7 m/s)
Visibility: 10 or more miles (16+ km)
Ceiling: 1600 feet AGL
Clouds: overcast cloud deck at 1600 feet AGL
Present Weather: automated observation with no human augmentation;
there may or may not be significant weather present at this time
KBKV 210253Z AUTO 03011KT 10SM OVC016 19/15 A3018 RMK AO2 SLP217 T01890150 51021

Conditions at: KBKV observed 21 April 2018  01:53 UTC
Temperature: 20.0°C (68°F)
Dewpoint: 15.6°C (60°F) [RH = 76%]
Pressure (altimeter): 30.17 inches Hg (1021.8 mb)
[Sea-level pressure: 1021.6 mb]
Winds: from the NE (40 degrees) at 14 MPH (12 knots; 6.2 m/s)
Visibility: 10 or more miles (16+ km)
Ceiling: 1800 feet AGL
Clouds: overcast cloud deck at 1800 feet AGL
Present Weather: no significant weather observed at this time
KBKV 210153Z 04012KT 10SM OVC018 20/16 A3017 RMK AO2 SLP216 T02000156

Conditions at: KBKV observed 21 April 2018  00:53 UTC
Temperature: 21.1°C (70°F)
Dewpoint: 16.1°C (61°F) [RH = 73%]
Pressure (altimeter): 30.14 inches Hg (1020.7 mb)
[Sea-level pressure: 1020.6 mb]
Winds: from the NE (40 degrees) at 15 MPH (13 knots; 6.8 m/s)
gusting to 20 MPH (17 knots; 8.8 m/s)
Visibility: 10 or more miles (16+ km)
Ceiling: 2000 feet AGL
Clouds: overcast cloud deck at 2000 feet AGL
Present Weather: no significant weather observed at this time
KBKV 210053Z 04013G17KT 10SM OVC020 21/16 A3014 RMK AO2 SLP206 T02110161

Conditions at: KBKV observed 21 April 2018  00:32 UTC
Temperature: 21.1°C (70°F)
Dewpoint: 16.1°C (61°F) [RH = 73%]
Pressure (altimeter): 30.13 inches Hg (1020.4 mb)
Winds: from the NNE (30 degrees) at 10 MPH (9 knots; 4.7 m/s)
gusting to 17 MPH (15 knots; 7.8 m/s)
Visibility: 10 or more miles (16+ km)
Ceiling: 2100 feet AGL
Clouds: broken clouds at 2100 feet AGL
Present Weather: no significant weather observed at this time
KBKV 210032Z 03009G15KT 10SM BKN021 21/16 A3013 RMK AO2 T02110161

Conditions at: KBKV observed 20 April 2018  23:53 UTC
Temperature: 22.2°C (72°F)
Dewpoint: 16.7°C (62°F) [RH = 71%]
Pressure (altimeter): 30.11 inches Hg (1019.7 mb)
[Sea-level pressure: 1019.6 mb]
Winds: from the NE (40 degrees) at 13 MPH (11 knots; 5.7 m/s)
Visibility: 10 or more miles (16+ km)
Ceiling: at least 12,000 feet AGL
Clouds: sky clear below 12,000 feet AGL
Present Weather: no significant weather observed at this time
KBKV 202353Z 04011KT 10SM CLR 22/17 A3011 RMK AO2 SLP196 T02220167 10289 20222 53008

Conditions at: KBKV observed 20 April 2018  22:53 UTC
Temperature: 25.0°C (77°F)
Dewpoint: 16.7°C (62°F) [RH = 60%]
Pressure (altimeter): 30.10 inches Hg (1019.4 mb)
[Sea-level pressure: 1019.1 mb]
Winds: from the ENE (70 degrees) at 15 MPH (13 knots; 6.8 m/s)
Visibility: 10 or more miles (16+ km)
Ceiling: at least 12,000 feet AGL
Clouds: sky clear below 12,000 feet AGL
Present Weather: no significant weather observed at this time
KBKV 202253Z 07013KT 10SM CLR 25/17 A3010 RMK AO2 SLP191 T02500167

Conditions at: KBKV observed 20 April 2018  21:53 UTC
Temperature: 27.2°C (81°F)
Dewpoint: 17.2°C (63°F) [RH = 54%]
Pressure (altimeter): 30.10 inches Hg (1019.4 mb)
[Sea-level pressure: 1019.1 mb]
Winds: from the NE (40 degrees) at 10 MPH (9 knots; 4.7 m/s)
Visibility: 10 or more miles (16+ km)
Ceiling: at least 12,000 feet AGL
Clouds: sky clear below 12,000 feet AGL
Present Weather: no significant weather observed at this time
KBKV 202153Z 04009KT 10SM CLR 27/17 A3010 RMK AO2 SLP191 T02720172

Conditions at: KBKV observed 20 April 2018  20:53 UTC
Temperature: 27.2°C (81°F)
Dewpoint: 17.2°C (63°F) [RH = 54%]
Pressure (altimeter): 30.09 inches Hg (1019.0 mb)
[Sea-level pressure: 1018.8 mb]
Winds: from the NE (40 degrees) at 14 MPH (12 knots; 6.2 m/s)
Visibility: 10 or more miles (16+ km)
Ceiling: at least 12,000 feet AGL
Clouds: few clouds at 4100 feet AGL
Present Weather: no significant weather observed at this time
KBKV 202053Z 04012KT 10SM FEW041 27/17 A3009 RMK AO2 SLP188 T02720172 58017

Conditions at: KBKV observed 20 April 2018  19:53 UTC
Temperature: 28.9°C (84°F)
Dewpoint: 17.2°C (63°F) [RH = 49%]
Pressure (altimeter): 30.11 inches Hg (1019.7 mb)
[Sea-level pressure: 1019.4 mb]
Winds: from the ENE (70 degrees) at 12 MPH (10 knots; 5.2 m/s)
Visibility: 10 or more miles (16+ km)
Ceiling: 6000 feet AGL
Clouds: scattered clouds at 5000 feet AGL
broken clouds at 6000 feet AGL
Present Weather: no significant weather observed at this time
KBKV 201953Z 07010KT 10SM SCT050 BKN060 29/17 A3011 RMK AO2 SLP194 T02890172

Conditions at: KBKV observed 20 April 2018  18:53 UTC
Temperature: 27.8°C (82°F)
Dewpoint: 15.0°C (59°F) [RH = 46%]
Pressure (altimeter): 30.13 inches Hg (1020.4 mb)
[Sea-level pressure: 1020.1 mb]
Winds: from the ENE (60 degrees) at 8 MPH (7 knots; 3.6 m/s)
Visibility: 10 or more miles (16+ km)
Ceiling: at least 12,000 feet AGL
Clouds: scattered clouds at 4900 feet AGL
Present Weather: no significant weather observed at this time
KBKV 201853Z 06007KT 10SM SCT049 28/15 A3013 RMK AO2 SLP201 T02780150

Conditions at: KBKV observed 20 April 2018  17:53 UTC
Temperature: 27.8°C (82°F)
Dewpoint: 15.6°C (60°F) [RH = 47%]
Pressure (altimeter): 30.14 inches Hg (1020.7 mb)
[Sea-level pressure: 1020.5 mb]
Winds: from the NE (40 degrees) at 8 MPH (7 knots; 3.6 m/s)
Visibility: 10 or more miles (16+ km)
Ceiling: at least 12,000 feet AGL
Clouds: scattered clouds at 4500 feet AGL
scattered clouds at 5500 feet AGL
Present Weather: no significant weather observed at this time
KBKV 201753Z 04007KT 020V080 10SM SCT045 SCT055 28/16 A3014 RMK AO2 SLP205 T02780156 10289 20156 58005

Conditions at: KBKV observed 20 April 2018  16:53 UTC
Temperature: 26.1°C (79°F)
Dewpoint: 15.6°C (60°F) [RH = 52%]
Pressure (altimeter): 30.15 inches Hg (1021.1 mb)
[Sea-level pressure: 1020.7 mb]
Winds: from the ENE (60 degrees) at 6 MPH (5 knots; 2.6 m/s)
Visibility: 10 or more miles (16+ km)
Ceiling: at least 12,000 feet AGL
Clouds: few clouds at 4300 feet AGL
Present Weather: no significant weather observed at this time
KBKV 201653Z 06005KT 10SM FEW043 26/16 A3015 RMK AO2 SLP207 T02610156

Conditions at: KBKV observed 20 April 2018  15:53 UTC
Temperature: 25.6°C (78°F)
Dewpoint: 16.1°C (61°F) [RH = 56%]
Pressure (altimeter): 30.16 inches Hg (1021.4 mb)
[Sea-level pressure: 1021.1 mb]
Winds: from the E (90 degrees) at 7 MPH (6 knots; 3.1 m/s)
Visibility: 10 or more miles (16+ km)
Ceiling: at least 12,000 feet AGL
Clouds: sky clear below 12,000 feet AGL
Present Weather: no significant weather observed at this time
KBKV 201553Z 09006KT 10SM CLR 26/16 A3016 RMK AO2 SLP211 T02560161

Conditions at: KBKV observed 20 April 2018  14:53 UTC
Temperature: 23.3°C (74°F)
Dewpoint: 16.1°C (61°F) [RH = 64%]
Pressure (altimeter): 30.15 inches Hg (1021.1 mb)
[Sea-level pressure: 1021.0 mb]
Winds: from the ENE (70 degrees) at 12 MPH (10 knots; 5.2 m/s)
Visibility: 10 or more miles (16+ km)
Ceiling: at least 12,000 feet AGL
Clouds: sky clear below 12,000 feet AGL
Present Weather: no significant weather observed at this time
KBKV 201453Z 07010KT 10SM CLR 23/16 A3015 RMK AO2 SLP210 T02330161 51012

Conditions at: KBKV observed 20 April 2018  13:53 UTC
Temperature: 21.7°C (71°F)
Dewpoint: 16.1°C (61°F) [RH = 70%]
Pressure (altimeter): 30.15 inches Hg (1021.1 mb)
[Sea-level pressure: 1020.9 mb]
Winds: from the ENE (70 degrees) at 12 MPH (10 knots; 5.2 m/s)
Visibility: 10 or more miles (16+ km)
Ceiling: at least 12,000 feet AGL
Clouds: sky clear below 12,000 feet AGL
Present Weather: no significant weather observed at this time
KBKV 201353Z 07010KT 10SM CLR 22/16 A3015 RMK AO2 SLP209 T02170161

Conditions at: KBKV observed 20 April 2018  13:20 UTC
Temperature: 21.1°C (70°F)
Dewpoint: 17.2°C (63°F) [RH = 78%]
Pressure (altimeter): 30.15 inches Hg (1021.1 mb)
Winds: from the NE (40 degrees) at 13 MPH (11 knots; 5.7 m/s)
Visibility: 10 or more miles (16+ km)
Ceiling: at least 12,000 feet AGL
Clouds: few clouds at 3000 feet AGL
scattered clouds at 3700 feet AGL
Present Weather: no significant weather observed at this time
KBKV 201320Z 04011KT 10SM FEW030 SCT037 21/17 A3015 RMK AO2 T02110172

Conditions at: KBKV observed 20 April 2018  12:53 UTC
Temperature: 19.4°C (67°F)
Dewpoint: 17.8°C (64°F) [RH = 90%]
Pressure (altimeter): 30.14 inches Hg (1020.7 mb)
[Sea-level pressure: 1020.4 mb]
Winds: from the NNE (30 degrees) at 5 MPH (4 knots; 2.1 m/s)
Visibility: 10 or more miles (16+ km)
Ceiling: 2200 feet AGL
Clouds: few clouds at 900 feet AGL
broken clouds at 2200 feet AGL
overcast cloud deck at 3000 feet AGL
Present Weather: no significant weather observed at this time
KBKV 201253Z 03004KT 10SM FEW009 BKN022 OVC030 19/18 A3014 RMK AO2 SLP204 T01940178

Conditions at: KBKV observed 20 April 2018  12:32 UTC
Temperature: 17.2°C (63°F)
Dewpoint: 16.1°C (61°F) [RH = 93%]
Pressure (altimeter): 30.14 inches Hg (1020.7 mb)
Winds: from the NNE (20 degrees) at 7 MPH (6 knots; 3.1 m/s)
Visibility: 10 or more miles (16+ km)
Ceiling: 2200 feet AGL
Clouds: few clouds at 900 feet AGL
broken clouds at 2200 feet AGL
overcast cloud deck at 2900 feet AGL
Present Weather: no significant weather observed at this time
KBKV 201232Z 02006KT 10SM FEW009 BKN022 OVC029 17/16 A3014 RMK AO2 T01720161

Conditions at: KBKV observed 20 April 2018  11:53 UTC
Temperature: 15.6°C (60°F)
Dewpoint: 14.4°C (58°F) [RH = 93%]
Pressure (altimeter): 30.12 inches Hg (1020.1 mb)
[Sea-level pressure: 1019.8 mb]
Winds: calm
Visibility: 10 or more miles (16+ km)
Ceiling: 2700 feet AGL
Clouds: broken clouds at 2700 feet AGL
Present Weather: no significant weather observed at this time
KBKV 201153Z 00000KT 10SM BKN027 16/14 A3012 RMK AO2 SLP198 T01560144 10156 20122 53013

Conditions at: KBKV observed 20 April 2018  10:53 UTC
Temperature: 13.9°C (57°F)
Dewpoint: 13.3°C (56°F) [RH = 96%]
Pressure (altimeter): 30.10 inches Hg (1019.4 mb)
[Sea-level pressure: 1019.0 mb]
Winds: calm
Visibility: 10 or more miles (16+ km)
Ceiling: 2600 feet AGL
Clouds: broken clouds at 2600 feet AGL
Present Weather: no significant weather observed at this time
KBKV 201053Z 00000KT 10SM BKN026 14/13 A3010 RMK AO2 SLP190 T01390133

Conditions at: KBKV observed 20 April 2018  10:49 UTC
Temperature: 14.0°C (57°F)
Dewpoint: 13.0°C (55°F) [RH = 94%]
Pressure (altimeter): 30.09 inches Hg (1019.0 mb)
Winds: calm
Visibility: 10 or more miles (16+ km)
Ceiling: 2600 feet AGL
Clouds: broken clouds at 2600 feet AGL
Present Weather: no significant weather observed at this time
KBKV 201049Z 00000KT 10SM BKN026 14/13 A3009 RMK AO2

Conditions at: KBKV observed 20 April 2018  10:05 UTC
Temperature: 13.9°C (57°F)
Dewpoint: 13.3°C (56°F) [RH = 96%]
Pressure (altimeter): 30.08 inches Hg (1018.7 mb)
Winds: calm
Visibility: 10 or more miles (16+ km)
Ceiling: at least 12,000 feet AGL
Clouds: scattered clouds at 2500 feet AGL
Present Weather: automated observation with no human augmentation;
there may or may not be significant weather present at this time
KBKV 201005Z AUTO 00000KT 10SM SCT025 14/13 A3008 RMK AO2 T01390133

Conditions at: KBKV observed 20 April 2018  09:53 UTC
Temperature: 14.4°C (58°F)
Dewpoint: 13.9°C (57°F) [RH = 97%]
Pressure (altimeter): 30.08 inches Hg (1018.7 mb)
[Sea-level pressure: 1018.5 mb]
Winds: calm
Visibility: 10 or more miles (16+ km)
Ceiling: 2500 feet AGL
Clouds: broken clouds at 2500 feet AGL
Present Weather: automated observation with no human augmentation;
there may or may not be significant weather present at this time
KBKV 200953Z AUTO 00000KT 10SM BKN025 14/14 A3008 RMK AO2 SLP185 T01440139